Time;durP1;ratioP1;P1;durP2;ratioP2;P2;SDS_P1;SDS_P2;PMS_P1;PMS_P2;Temp;Humidity;BMP_temperature;BMP_pressure;BME280_temperature;BME280_humidity;BME280_pressure;Samples;Min_cycle;Max_cycle;Signal;HPM_P1;HPM_P2
2021/08/23 00:00:13;;;;;;;1.17;1.17;;;25.60;47.30;;;;;;5068525;28;20083;-75
2021/08/23 00:02:41;;;;;;;1.20;1.02;;;25.60;47.30;;;;;;5068598;28;20052;-75
2021/08/23 00:05:08;;;;;;;1.20;1.20;;;25.60;47.30;;;;;;5068869;28;20280;-74
2021/08/23 00:07:35;;;;;;;0.95;0.95;;;25.60;47.30;;;;;;5068475;28;20076;-75
2021/08/23 00:10:03;;;;;;;0.95;0.90;;;25.60;47.30;;;;;;5069122;28;20059;-75
2021/08/23 00:12:30;;;;;;;1.10;1.08;;;25.50;47.30;;;;;;5068299;28;20334;-75
2021/08/23 00:14:58;;;;;;;0.98;0.98;;;25.50;47.30;;;;;;5068166;28;20135;-75
2021/08/23 00:17:25;;;;;;;1.63;1.52;;;25.50;47.30;;;;;;5068926;28;20132;-75
2021/08/23 00:19:52;;;;;;;1.17;1.13;;;25.50;47.40;;;;;;5067879;28;20054;-75
2021/08/23 00:22:21;;;;;;;1.30;1.20;;;25.50;47.40;;;;;;5068876;28;20183;-75
2021/08/23 00:24:50;;;;;;;1.30;1.20;;;25.50;47.40;;;;;;5068206;28;20432;-75
2021/08/23 00:27:18;;;;;;;1.30;1.20;;;25.50;47.40;;;;;;5067746;28;20051;-75
2021/08/23 00:29:48;;;;;;;1.02;1.02;;;25.50;47.40;;;;;;5068139;28;20143;-75
2021/08/23 00:32:15;;;;;;;;;;;25.50;47.40;;;;;;5068308;28;20051;-75
2021/08/23 00:34:42;;;;;;;1.33;1.23;;;25.50;47.40;;;;;;5068397;28;19920;-75
2021/08/23 00:37:09;;;;;;;1.40;1.30;;;25.50;47.50;;;;;;5068117;28;20128;-75
2021/08/23 00:39:37;;;;;;;1.35;1.30;;;25.50;47.50;;;;;;5068214;28;20520;-75
2021/08/23 00:42:05;;;;;;;1.38;1.13;;;25.50;47.50;;;;;;5067551;28;20045;-75
2021/08/23 00:44:37;;;;;;;1.30;1.20;;;25.50;47.50;;;;;;5067648;28;20059;-75
2021/08/23 00:47:08;;;;;;;0.95;0.95;;;25.50;47.50;;;;;;5068345;28;20044;-74
2021/08/23 00:49:35;;;;;;;1.42;1.33;;;25.50;47.50;;;;;;5067527;28;20141;-75
2021/08/23 00:52:07;;;;;;;1.15;1.10;;;25.50;47.60;;;;;;5068085;28;20049;-75
2021/08/23 00:54:35;;;;;;;1.58;1.48;;;25.50;47.50;;;;;;5067674;28;20076;-75
2021/08/23 00:57:04;;;;;;;1.08;1.08;;;25.50;47.50;;;;;;5067477;28;20131;-76
2021/08/23 00:59:36;;;;;;;1.10;1.08;;;25.50;47.50;;;;;;5067950;28;20132;-74
2021/08/23 01:02:16;;;;;;;1.20;1.10;;;25.50;47.50;;;;;;5067071;28;20058;-75
2021/08/23 01:05:15;;;;;;;1.38;1.27;;;25.50;47.50;;;;;;5068012;28;20401;-75
2021/08/23 01:07:51;;;;;;;1.10;1.00;;;25.50;47.50;;;;;;5067181;28;20116;-75
2021/08/23 01:10:42;;;;;;;1.23;1.13;;;25.50;47.50;;;;;;5067595;28;20048;-75
2021/08/23 01:13:09;;;;;;;1.17;1.17;;;25.50;47.50;;;;;;5067551;28;20098;-75
2021/08/23 01:15:39;;;;;;;1.27;1.27;;;25.50;47.50;;;;;;5067007;28;20143;-75
2021/08/23 01:18:07;;;;;;;1.88;1.30;;;25.50;47.50;;;;;;5067448;28;20131;-75
2021/08/23 01:20:38;;;;;;;1.55;1.23;;;25.50;47.50;;;;;;5066927;28;20045;-75
2021/08/23 01:23:08;;;;;;;1.20;1.10;;;25.50;47.50;;;;;;5067691;28;20412;-75
2021/08/23 01:25:37;;;;;;;1.50;1.40;;;25.50;47.60;;;;;;5066727;28;20135;-75
2021/08/23 01:28:33;;;;;;;1.30;1.20;;;25.50;47.60;;;;;;5067404;28;20452;-75
2021/08/23 01:31:35;;;;;;;1.50;1.40;;;25.50;47.60;;;;;;5066201;28;20592;-75
2021/08/23 01:34:04;;;;;;;1.08;1.08;;;25.50;47.70;;;;;;5067337;28;20047;-75
2021/08/23 01:36:31;;;;;;;1.38;1.27;;;25.50;47.70;;;;;;5067204;28;20139;-75
2021/08/23 01:38:59;;;;;;;1.33;1.23;;;25.50;47.70;;;;;;5066596;28;20045;-75
2021/08/23 01:41:27;;;;;;;1.20;1.10;;;25.50;47.70;;;;;;5066949;28;20074;-75
2021/08/23 01:43:54;;;;;;;1.40;1.10;;;25.40;47.70;;;;;;5066735;28;20040;-75
2021/08/23 01:46:21;;;;;;;1.50;1.40;;;25.40;47.70;;;;;;5067038;28;20054;-75
2021/08/23 01:48:48;;;;;;;2.22;1.05;;;25.40;47.70;;;;;;5066379;28;20052;-75
2021/08/23 01:51:16;;;;;;;1.23;1.20;;;25.40;47.70;;;;;;5066393;28;20416;-75
2021/08/23 01:53:43;;;;;;;1.92;1.00;;;25.50;47.80;;;;;;5065972;28;20051;-75
2021/08/23 01:56:10;;;;;;;1.13;1.13;;;25.40;47.80;;;;;;5066272;28;20135;-75
2021/08/23 01:58:37;;;;;;;1.20;1.20;;;25.40;47.80;;;;;;5066893;28;20123;-75
2021/08/23 02:01:04;;;;;;;1.10;1.02;;;25.40;47.80;;;;;;5066364;28;20182;-75
2021/08/23 02:03:31;;;;;;;1.35;1.20;;;25.40;47.80;;;;;;5066054;28;20512;-75
2021/08/23 02:05:58;;;;;;;1.20;1.20;;;25.40;47.90;;;;;;5066872;28;20135;-75
2021/08/23 02:08:25;;;;;;;1.52;1.20;;;25.40;47.90;;;;;;5066438;28;20053;-75
2021/08/23 02:10:52;;;;;;;1.50;1.40;;;25.40;47.90;;;;;;5066771;28;20068;-75
2021/08/23 02:13:21;;;;;;;1.45;1.20;;;25.40;47.90;;;;;;5065755;28;20152;-75
2021/08/23 02:15:48;;;;;;;0.93;0.90;;;25.40;47.90;;;;;;5066313;28;20054;-75
2021/08/23 02:18:15;;;;;;;1.30;1.20;;;25.40;47.90;;;;;;5066341;28;20055;-76
2021/08/23 02:20:42;;;;;;;1.40;1.30;;;25.40;47.90;;;;;;5064277;28;20151;-75
2021/08/23 02:23:09;;;;;;;2.50;1.63;;;25.40;48.00;;;;;;5066317;28;20059;-75
2021/08/23 02:25:36;;;;;;;1.40;1.20;;;25.40;48.00;;;;;;5065960;28;20359;-75
2021/08/23 02:28:04;;;;;;;1.27;1.17;;;25.40;48.00;;;;;;5066219;28;20047;-75
2021/08/23 02:30:31;;;;;;;1.33;1.30;;;25.40;48.00;;;;;;5066249;28;20093;-75
2021/08/23 02:32:58;;;;;;;1.40;1.30;;;25.40;48.00;;;;;;5065246;28;20127;-75
2021/08/23 02:35:25;;;;;;;1.08;1.08;;;25.40;48.00;;;;;;5066419;28;20048;-75
2021/08/23 02:37:52;;;;;;;1.58;1.30;;;25.40;48.00;;;;;;5065956;28;20048;-75
2021/08/23 02:40:20;;;;;;;1.42;1.33;;;25.40;48.00;;;;;;5066492;28;20059;-75
2021/08/23 02:42:47;;;;;;;1.75;1.65;;;25.40;48.00;;;;;;5065640;28;20040;-75
2021/08/23 02:45:14;;;;;;;3.05;1.45;;;25.40;48.00;;;;;;5065681;28;20048;-75
2021/08/23 02:47:41;;;;;;;1.50;1.40;;;25.40;48.00;;;;;;5065584;28;20131;-75
2021/08/23 02:50:09;;;;;;;1.27;1.23;;;25.40;48.00;;;;;;5065333;28;20044;-75
2021/08/23 02:52:37;;;;;;;1.08;1.08;;;25.40;47.90;;;;;;5065886;28;20079;-75
2021/08/23 02:55:05;;;;;;;1.33;1.23;;;25.40;48.00;;;;;;5065002;28;20089;-76
2021/08/23 02:57:32;;;;;;;2.13;1.23;;;25.40;47.90;;;;;;5065372;28;20045;-75
2021/08/23 03:00:00;;;;;;;1.15;1.15;;;25.40;47.90;;;;;;5065823;28;20086;-75
2021/08/23 03:02:27;;;;;;;1.65;1.40;;;25.40;47.90;;;;;;5065181;28;20156;-75
2021/08/23 03:04:54;;;;;;;1.10;1.10;;;25.40;48.00;;;;;;5070975;28;20478;-75
2021/08/23 03:07:21;;;;;;;1.17;1.17;;;25.40;47.90;;;;;;5071703;28;20128;-75
2021/08/23 03:09:48;;;;;;;1.27;1.17;;;25.40;48.00;;;;;;5072529;28;20132;-75
2021/08/23 03:12:16;;;;;;;1.75;1.65;;;25.40;48.00;;;;;;5072534;28;20044;-75
2021/08/23 03:14:43;;;;;;;1.45;1.38;;;25.40;48.10;;;;;;5071602;28;20136;-75
2021/08/23 03:17:10;;;;;;;1.30;1.20;;;25.40;48.10;;;;;;5072772;28;20463;-75
2021/08/23 03:19:38;;;;;;;1.60;1.50;;;25.40;48.10;;;;;;5071574;28;20122;-75
2021/08/23 03:22:05;;;;;;;2.78;1.50;;;25.40;48.10;;;;;;5072320;28;20044;-75
2021/08/23 03:24:33;;;;;;;1.63;1.52;;;25.40;48.10;;;;;;5072399;28;20071;-75
2021/08/23 03:27:00;;;;;;;1.45;1.35;;;25.40;48.20;;;;;;5071330;28;20192;-75
2021/08/23 03:29:27;;;;;;;1.38;1.27;;;25.40;48.20;;;;;;5071070;28;20048;-74
2021/08/23 03:31:54;;;;;;;1.20;1.10;;;25.30;48.10;;;;;;5051834;28;20041;-74
2021/08/23 03:34:21;;;;;;;1.40;1.30;;;25.40;48.30;;;;;;5051205;28;20052;-75
2021/08/23 03:36:48;;;;;;;1.55;1.15;;;25.40;48.30;;;;;;5054284;28;20125;-74
2021/08/23 03:39:20;;;;;;;1.40;1.30;;;25.30;48.30;;;;;;5071421;28;20202;-75
2021/08/23 03:41:47;;;;;;;1.10;1.10;;;25.40;48.30;;;;;;5070298;28;20097;-75
2021/08/23 03:44:14;;;;;;;1.27;1.17;;;25.30;48.30;;;;;;5071460;28;20044;-74
2021/08/23 03:46:41;;;;;;;2.63;1.80;;;25.40;48.30;;;;;;5072422;28;20052;-74
2021/08/23 03:49:08;;;;;;;3.05;1.60;;;25.40;48.40;;;;;;5070826;28;20040;-74
2021/08/23 03:51:35;;;;;;;1.40;1.30;;;25.40;48.40;;;;;;5051010;28;20037;-74
2021/08/23 03:54:02;;;;;;;2.05;1.65;;;25.40;48.40;;;;;;5051364;28;20585;-74
2021/08/23 03:56:29;;;;;;;1.42;1.17;;;25.30;48.30;;;;;;5049349;28;20044;-75
2021/08/23 03:58:56;;;;;;;2.15;1.48;;;25.30;48.40;;;;;;5051569;28;20049;-74
2021/08/23 04:01:23;;;;;;;1.52;1.42;;;25.30;48.40;;;;;;5050231;28;20053;-74
2021/08/23 04:03:51;;;;;;;1.67;1.40;;;25.40;48.40;;;;;;5050681;28;20513;-74
2021/08/23 04:06:18;;;;;;;1.38;1.27;;;25.30;48.40;;;;;;5059682;28;20118;-75
2021/08/23 04:08:45;;;;;;;2.47;1.40;;;25.30;48.40;;;;;;5070949;28;20052;-74
2021/08/23 04:11:16;;;;;;;2.13;1.45;;;25.30;48.40;;;;;;5072218;28;20052;-74
2021/08/23 04:13:43;;;;;;;7.13;2.08;;;25.40;48.40;;;;;;5089599;28;20127;-74
2021/08/23 04:16:18;;;;;;;1.80;1.20;;;25.40;48.40;;;;;;5088996;28;20060;-74
2021/08/23 04:18:46;;;;;;;1.95;1.70;;;25.40;48.40;;;;;;5088887;28;20047;-74
2021/08/23 04:21:13;;;;;;;1.58;1.48;;;25.40;48.30;;;;;;5064102;28;20044;-74
2021/08/23 04:23:40;;;;;;;1.70;1.60;;;25.40;48.30;;;;;;5054057;28;20128;-74
2021/08/23 04:26:07;;;;;;;1.52;1.40;;;25.40;48.30;;;;;;5059031;28;20041;-74
2021/08/23 04:28:35;;;;;;;1.75;1.60;;;25.40;48.20;;;;;;5049270;28;20136;-74
2021/08/23 04:31:02;;;;;;;4.05;1.70;;;25.40;48.20;;;;;;5054341;28;20041;-74
2021/08/23 04:33:29;;;;;;;1.52;1.42;;;25.50;48.30;;;;;;5049162;28;20053;-74
2021/08/23 04:35:56;;;;;;;1.98;1.50;;;25.50;48.30;;;;;;5051756;28;20142;-74
2021/08/23 04:38:23;;;;;;;2.38;2.10;;;25.50;48.40;;;;;;5053503;28;20180;-74
2021/08/23 04:40:51;;;;;;;1.85;1.70;;;25.50;48.40;;;;;;5057425;28;20335;-74
2021/08/23 04:43:18;;;;;;;1.58;1.48;;;25.50;48.60;;;;;;5056988;28;20072;-74
2021/08/23 04:45:45;;;;;;;2.33;2.00;;;25.50;48.70;;;;;;5057559;28;20045;-74
2021/08/23 04:48:12;;;;;;;3.22;2.47;;;25.50;48.90;;;;;;5055698;28;20513;-74
2021/08/23 04:50:39;;;;;;;3.50;2.20;;;25.60;49.20;;;;;;5060038;28;20136;-74
2021/08/23 04:53:06;;;;;;;4.82;2.15;;;25.60;49.60;;;;;;5061709;28;20037;-74
2021/08/23 04:55:33;;;;;;;2.63;2.20;;;25.60;49.60;;;;;;5057587;28;20543;-74
2021/08/23 04:58:00;;;;;;;2.17;2.08;;;25.60;49.70;;;;;;5056363;28;20110;-74
2021/08/23 05:00:28;;;;;;;3.58;2.22;;;25.60;49.80;;;;;;5057066;28;20072;-74
2021/08/23 05:02:55;;;;;;;2.22;2.03;;;25.60;49.80;;;;;;5056289;28;20546;-74
2021/08/23 05:05:22;;;;;;;2.70;2.10;;;25.70;49.90;;;;;;5049513;28;20063;-74
2021/08/23 05:07:49;;;;;;;2.28;2.08;;;25.60;49.80;;;;;;5054047;28;20153;-74
2021/08/23 05:10:17;;;;;;;2.15;1.70;;;25.60;49.80;;;;;;5056772;28;20386;-66
2021/08/23 05:12:44;;;;;;;4.55;1.75;;;25.60;49.90;;;;;;5057735;28;20115;-65
2021/08/23 05:15:11;;;;;;;2.55;1.10;;;25.60;50.60;;;;;;5055589;28;20037;-65
2021/08/23 05:17:38;;;;;;;0.95;0.95;;;25.50;51.80;;;;;;5052541;28;20045;-65
2021/08/23 05:20:06;;;;;;;2.70;1.15;;;25.40;52.40;;;;;;5056193;28;20094;-64
2021/08/23 05:22:37;;;;;;;2.05;0.93;;;25.40;52.80;;;;;;5054615;28;20048;-66
2021/08/23 05:25:05;;;;;;;1.15;1.05;;;25.10;52.80;;;;;;5056031;28;20041;-65
2021/08/23 05:27:32;;;;;;;2.35;1.23;;;25.10;53.10;;;;;;5048665;28;20053;-65
2021/08/23 05:30:06;;;;;;;3.83;1.17;;;24.90;53.60;;;;;;5052386;28;20128;-65
2021/08/23 05:32:33;;;;;;;1.70;0.98;;;24.70;53.90;;;;;;5054954;28;20605;-66
2021/08/23 05:35:00;;;;;;;1.58;1.08;;;24.50;53.90;;;;;;5054547;28;20048;-64
2021/08/23 05:37:27;;;;;;;4.07;1.38;;;24.30;54.00;;;;;;5052124;28;20135;-68
2021/08/23 05:39:55;;;;;;;1.83;1.48;;;24.20;54.10;;;;;;5053626;28;20127;-66
2021/08/23 05:42:22;;;;;;;2.55;1.23;;;24.10;54.30;;;;;;5053036;28;20239;-65
2021/08/23 05:44:53;;;;;;;2.42;1.13;;;23.90;54.60;;;;;;5050176;28;20063;-66
2021/08/23 05:47:21;;;;;;;1.40;1.30;;;23.80;54.70;;;;;;5051910;28;20060;-65
2021/08/23 05:49:49;;;;;;;1.20;1.10;;;23.80;55.60;;;;;;5053021;28;20071;-65
2021/08/23 05:52:17;;;;;;;1.38;0.98;;;23.60;56.30;;;;;;5052929;28;20048;-65
2021/08/23 05:54:46;;;;;;;4.25;1.20;;;23.60;56.20;;;;;;5053779;28;20516;-65
2021/08/23 05:57:13;;;;;;;2.42;1.13;;;23.60;56.00;;;;;;5050805;28;20088;-65
2021/08/23 05:59:41;;;;;;;2.05;1.15;;;23.50;56.20;;;;;;5054645;28;20053;-65
2021/08/23 06:02:08;;;;;;;2.05;1.50;;;23.50;56.70;;;;;;5048187;28;20127;-64
2021/08/23 06:04:36;;;;;;;1.75;1.02;;;23.50;56.80;;;;;;5049196;28;20052;-65
2021/08/23 06:07:06;;;;;;;1.13;0.95;;;23.50;57.00;;;;;;5050989;28;20166;-65
2021/08/23 06:09:34;;;;;;;1.48;1.17;;;23.50;56.50;;;;;;5052230;28;20556;-65
2021/08/23 06:12:01;;;;;;;1.48;1.20;;;23.50;56.60;;;;;;5049351;28;20049;-67
2021/08/23 06:14:28;;;;;;;3.92;1.40;;;23.50;56.50;;;;;;5049916;28;20057;-64
2021/08/23 06:16:56;;;;;;;2.47;1.60;;;23.50;56.30;;;;;;5049306;28;20044;-64
2021/08/23 06:19:23;;;;;;;3.90;1.70;;;23.40;56.50;;;;;;5052756;28;20123;-63
2021/08/23 06:21:50;;;;;;;3.53;1.50;;;23.40;57.00;;;;;;5041456;28;20106;-72
2021/08/23 06:24:18;;;;;;;1.30;1.20;;;23.30;55.80;;;;;;5040873;28;20059;-71
2021/08/23 06:26:45;;;;;;;0.90;0.90;;;23.30;56.00;;;;;;5051054;28;20099;-71
2021/08/23 06:29:12;;;;;;;1.52;0.90;;;23.20;56.00;;;;;;5060170;28;20135;-71
2021/08/23 06:31:39;;;;;;;1.13;1.00;;;23.10;56.30;;;;;;5053044;28;20132;-72
2021/08/23 06:34:07;;;;;;;1.55;0.98;;;23.00;56.50;;;;;;5050145;28;20151;-71
2021/08/23 06:36:36;;;;;;;3.13;1.40;;;22.90;56.70;;;;;;5047542;28;20140;-72
2021/08/23 06:39:03;;;;;;;2.10;1.33;;;22.90;56.90;;;;;;5051438;28;20608;-72
2021/08/23 06:41:30;;;;;;;4.50;1.50;;;22.80;57.10;;;;;;5050999;28;20064;-73
2021/08/23 06:43:57;;;;;;;3.22;1.10;;;22.80;57.30;;;;;;5052224;28;20110;-73
2021/08/23 06:46:25;;;;;;;1.83;1.20;;;22.80;57.40;;;;;;5048565;28;20053;-71
2021/08/23 06:48:53;;;;;;;2.08;1.00;;;22.80;57.40;;;;;;5049661;28;20049;-71
2021/08/23 06:51:21;;;;;;;2.83;1.35;;;22.80;57.50;;;;;;5055745;28;20151;-72
2021/08/23 06:53:49;;;;;;;2.65;1.45;;;22.80;57.70;;;;;;5050680;28;20131;-71
2021/08/23 06:56:17;;;;;;;2.47;1.50;;;22.80;57.70;;;;;;5061460;28;20512;-70
2021/08/23 06:58:44;;;;;;;2.83;1.35;;;22.80;57.90;;;;;;5057962;28;20080;-71
2021/08/23 07:01:11;;;;;;;2.47;1.40;;;22.80;57.90;;;;;;5050062;28;20412;-66
2021/08/23 07:03:39;;;;;;;1.50;1.40;;;22.80;58.00;;;;;;5048444;28;20084;-71
2021/08/23 07:06:06;;;;;;;3.63;1.40;;;22.80;58.00;;;;;;5047940;28;20569;-73
2021/08/23 07:08:44;;;;;;;3.05;1.42;;;22.70;58.00;;;;;;5050577;28;20045;-70
2021/08/23 07:11:12;;;;;;;2.20;1.33;;;22.70;58.00;;;;;;5053776;28;20092;-70
2021/08/23 07:13:40;;;;;;;3.30;1.40;;;22.70;57.90;;;;;;5049299;28;20110;-68
2021/08/23 07:16:07;;;;;;;2.47;1.10;;;22.70;58.00;;;;;;5049413;28;20413;-70
2021/08/23 07:18:35;;;;;;;1.45;1.35;;;22.70;58.00;;;;;;5050178;28;20405;-70
2021/08/23 07:21:03;;;;;;;2.38;1.13;;;22.70;57.90;;;;;;5049152;28;20386;-70
2021/08/23 07:23:30;;;;;;;1.42;1.33;;;22.70;57.90;;;;;;5049838;28;20545;-70
2021/08/23 07:25:57;;;;;;;1.95;1.27;;;22.70;57.80;;;;;;5052405;28;20079;-70
2021/08/23 07:28:26;;;;;;;4.80;1.42;;;22.70;57.80;;;;;;5047752;28;20063;-72
2021/08/23 07:30:54;;;;;;;2.90;1.20;;;22.70;57.70;;;;;;5049541;28;20076;-72
2021/08/23 07:33:21;;;;;;;1.92;1.52;;;22.70;57.70;;;;;;5044895;28;20049;-73
2021/08/23 07:35:48;;;;;;;1.77;1.15;;;22.70;57.70;;;;;;5051390;28;20127;-72
2021/08/23 07:38:16;;;;;;;1.08;0.98;;;22.70;57.80;;;;;;5051544;28;20084;-74
2021/08/23 07:40:43;;;;;;;1.98;0.95;;;22.70;57.70;;;;;;5051122;28;20055;-68
2021/08/23 07:43:11;;;;;;;1.92;1.10;;;22.70;58.00;;;;;;5047717;28;20044;-73
2021/08/23 07:45:38;;;;;;;2.78;1.17;;;22.70;58.00;;;;;;5042266;28;20075;-72
2021/08/23 07:48:06;;;;;;;0.98;0.93;;;22.70;58.10;;;;;;5045495;28;20087;-70
2021/08/23 07:50:34;;;;;;;1.73;1.00;;;22.70;58.20;;;;;;5048874;28;20250;-70
2021/08/23 07:53:03;;;;;;;2.17;0.80;;;22.70;58.20;;;;;;5059185;28;20059;-71
2021/08/23 07:55:31;;;;;;;1.77;1.10;;;22.70;58.10;;;;;;5060740;28;20060;-70
2021/08/23 07:57:59;;;;;;;1.58;1.08;;;22.70;58.10;;;;;;5053526;28;20118;-72
2021/08/23 08:00:30;;;;;;;5.30;0.95;;;22.70;58.10;;;;;;5052976;28;20534;-72
2021/08/23 08:02:57;;;;;;;3.53;1.40;;;22.70;58.00;;;;;;5054289;28;20047;-72
2021/08/23 08:05:24;;;;;;;0.85;0.85;;;22.70;57.90;;;;;;5051981;28;20533;-73
2021/08/23 08:07:51;;;;;;;1.20;1.00;;;22.70;57.90;;;;;;5054533;28;20140;-74
2021/08/23 08:10:19;;;;;;;1.83;0.80;;;22.70;57.90;;;;;;5057311;28;20045;-72
2021/08/23 08:12:46;;;;;;;1.65;1.30;;;22.60;57.90;;;;;;5051890;28;20106;-70
2021/08/23 08:15:13;;;;;;;1.10;1.00;;;22.60;58.00;;;;;;5052631;28;20048;-69
2021/08/23 08:17:41;;;;;;;0.98;0.80;;;22.60;58.20;;;;;;5043666;28;20303;-72
2021/08/23 08:20:09;;;;;;;0.98;0.88;;;22.60;58.10;;;;;;5053956;28;20115;-72
2021/08/23 08:22:38;;;;;;;1.27;1.15;;;22.60;58.00;;;;;;5052464;28;20075;-70
2021/08/23 08:25:06;;;;;;;0.98;0.80;;;22.60;57.80;;;;;;5056098;28;20045;-73
2021/08/23 08:27:34;;;;;;;1.17;0.80;;;22.60;58.10;;;;;;5056448;28;20055;-73
2021/08/23 08:30:04;;;;;;;1.40;0.85;;;22.50;58.00;;;;;;5053228;28;20833;-73
2021/08/23 08:32:32;;;;;;;3.45;1.75;;;22.50;57.90;;;;;;5053056;28;20536;-71
2021/08/23 08:34:59;;;;;;;0.73;0.73;;;22.50;57.80;;;;;;5059874;28;20045;-70
2021/08/23 08:37:26;;;;;;;3.13;1.05;;;22.50;57.60;;;;;;5055085;28;20045;-72
2021/08/23 08:39:53;;;;;;;3.05;1.05;;;22.50;57.70;;;;;;5057059;28;20378;-72
2021/08/23 08:42:21;;;;;;;0.95;0.80;;;22.50;57.70;;;;;;5053358;28;20128;-71
2021/08/23 08:44:49;;;;;;;1.05;0.85;;;22.50;57.50;;;;;;5049606;28;20049;-72
2021/08/23 08:47:18;;;;;;;0.85;0.70;;;22.60;57.40;;;;;;5059961;28;20055;-72
2021/08/23 08:49:46;;;;;;;1.52;1.13;;;22.60;57.30;;;;;;5055630;28;20037;-72
2021/08/23 08:52:14;;;;;;;1.05;0.70;;;22.70;57.60;;;;;;5053045;28;20090;-72
2021/08/23 08:54:44;;;;;;;0.98;0.90;;;22.70;56.90;;;;;;5053912;28;20096;-72
2021/08/23 08:57:12;;;;;;;0.70;0.70;;;22.70;56.90;;;;;;5053270;28;20053;-71
2021/08/23 08:59:39;;;;;;;1.95;1.00;;;22.80;56.80;;;;;;5052531;28;20120;-72
2021/08/23 09:02:06;;;;;;;0.70;0.70;;;22.80;56.70;;;;;;5053540;28;20800;-74
2021/08/23 09:04:35;;;;;;;0.77;0.77;;;22.80;56.80;;;;;;5050385;28;20405;-72
2021/08/23 09:07:07;;;;;;;1.45;0.98;;;22.70;56.90;;;;;;5050659;28;20063;-71
2021/08/23 09:09:35;;;;;;;0.60;0.60;;;22.70;56.80;;;;;;5053641;28;20557;-73
2021/08/23 09:12:13;;;;;;;0.50;0.50;;;22.80;56.80;;;;;;5054604;28;20135;-72
2021/08/23 09:14:53;;;;;;;1.70;0.73;;;22.80;57.10;;;;;;5052491;28;20079;-73
2021/08/23 09:17:23;;;;;;;4.13;0.90;;;22.80;56.90;;;;;;5052791;28;20048;-73
2021/08/23 09:20:05;;;;;;;0.63;0.63;;;22.80;56.90;;;;;;5054159;28;20703;-74
2021/08/23 09:22:33;;;;;;;2.17;0.45;;;22.80;56.80;;;;;;5052205;28;20049;-71
2021/08/23 09:25:09;;;;;;;0.77;0.70;;;22.90;56.80;;;;;;5045626;28;20044;-74
2021/08/23 09:27:37;;;;;;;0.52;0.52;;;22.90;56.70;;;;;;5055430;28;20072;-73
2021/08/23 09:30:06;;;;;;;1.10;0.73;;;22.80;56.60;;;;;;5058296;28;20139;-72
2021/08/23 09:32:36;;;;;;;0.55;0.55;;;22.90;56.60;;;;;;5055706;28;20521;-74
2021/08/23 09:35:03;;;;;;;0.50;0.50;;;22.80;56.60;;;;;;5053900;28;20045;-73
2021/08/23 09:37:32;;;;;;;0.63;0.63;;;22.80;56.70;;;;;;5051607;28;20662;-74
2021/08/23 09:40:13;;;;;;;0.90;0.57;;;22.80;56.70;;;;;;5049791;28;20124;-73
2021/08/23 09:42:41;;;;;;;3.22;0.60;;;22.80;56.90;;;;;;5054726;28;20140;-73
2021/08/23 09:45:18;;;;;;;1.05;0.77;;;22.70;57.00;;;;;;5053306;28;20044;-72
2021/08/23 09:47:46;;;;;;;0.70;0.70;;;22.70;57.00;;;;;;5057133;28;20123;-74
2021/08/23 09:50:18;;;;;;;0.50;0.50;;;22.70;56.90;;;;;;5056972;28;20053;-73
2021/08/23 09:52:45;;;;;;;1.70;0.73;;;22.70;57.10;;;;;;5052672;28;20064;-75
2021/08/23 09:55:15;;;;;;;0.45;0.45;;;22.70;57.10;;;;;;5053007;28;20051;-73
2021/08/23 09:57:42;;;;;;;1.55;0.77;;;22.70;57.00;;;;;;5053436;28;20045;-74
2021/08/23 10:00:13;;;;;;;2.30;0.55;;;22.80;57.00;;;;;;5054340;28;20132;-71
2021/08/23 10:02:48;;;;;;;0.55;0.50;;;22.80;57.00;;;;;;5056942;28;20067;-69
2021/08/23 10:05:17;;;;;;;0.75;0.60;;;22.80;56.90;;;;;;5057013;28;20467;-71
2021/08/23 10:07:46;;;;;;;0.85;0.60;;;22.80;56.70;;;;;;5045835;28;20045;-75
2021/08/23 10:10:14;;;;;;;0.80;0.70;;;22.90;56.70;;;;;;5045202;28;20449;-76
2021/08/23 10:12:42;;;;;;;1.67;0.68;;;22.90;56.50;;;;;;5046396;28;20052;-71
2021/08/23 10:15:09;;;;;;;1.45;0.95;;;22.90;56.40;;;;;;5051751;28;20155;-75
2021/08/23 10:17:37;;;;;;;0.73;0.70;;;22.90;56.20;;;;;;5051809;28;20139;-74
2021/08/23 10:20:07;;;;;;;0.98;0.70;;;23.00;56.50;;;;;;5052903;28;20095;-75
2021/08/23 10:22:37;;;;;;;0.50;0.50;;;23.00;56.30;;;;;;5053912;28;20132;-73
2021/08/23 10:25:05;;;;;;;1.02;0.60;;;23.00;56.10;;;;;;5050329;28;20069;-71
2021/08/23 10:27:34;;;;;;;1.35;0.50;;;23.00;56.00;;;;;;5051883;28;20048;-70
2021/08/23 10:30:02;;;;;;;1.85;1.02;;;22.90;55.90;;;;;;5054005;28;20053;-74
2021/08/23 10:32:39;;;;;;;0.70;0.70;;;22.90;55.90;;;;;;5053413;28;20063;-74
2021/08/23 10:35:24;;;;;;;1.83;0.93;;;22.90;55.90;;;;;;5050345;28;20123;-75
2021/08/23 10:37:53;;;;;;;1.67;0.80;;;22.90;56.00;;;;;;5052032;28;20052;-73
2021/08/23 10:40:25;;;;;;;0.75;0.70;;;22.90;55.80;;;;;;5051137;28;20040;-70
2021/08/23 10:42:52;;;;;;;0.88;0.60;;;22.90;55.70;;;;;;5055662;28;20671;-72
2021/08/23 10:45:20;;;;;;;0.73;0.65;;;22.90;55.80;;;;;;5053852;28;20041;-73
2021/08/23 10:47:48;;;;;;;0.60;0.60;;;22.90;55.70;;;;;;5053391;28;20052;-74
2021/08/23 10:50:24;;;;;;;1.48;0.80;;;22.90;55.90;;;;;;5052516;28;20040;-73
2021/08/23 10:52:53;;;;;;;0.47;0.47;;;22.80;56.00;;;;;;5052285;28;20095;-73
2021/08/23 10:55:24;;;;;;;0.75;0.75;;;22.80;56.00;;;;;;5049539;28;20064;-71
2021/08/23 10:58:03;;;;;;;0.65;0.65;;;22.80;56.00;;;;;;5052799;28;20135;-72
2021/08/23 11:00:42;;;;;;;0.70;0.70;;;22.80;56.00;;;;;;5052151;28;20056;-72
2021/08/23 11:03:10;;;;;;;0.50;0.50;;;22.70;56.30;;;;;;5054912;28;20047;-70
2021/08/23 11:05:38;;;;;;;1.23;0.60;;;22.70;56.30;;;;;;5052050;28;20375;-72
2021/08/23 11:08:09;;;;;;;1.10;0.60;;;22.70;56.10;;;;;;5051853;28;20079;-69
2021/08/23 11:10:39;;;;;;;1.00;0.50;;;22.70;56.00;;;;;;5046234;28;20052;-72
2021/08/23 11:13:14;;;;;;;;;;;22.70;56.00;;;;;;5043139;28;20044;-74
2021/08/23 11:15:42;;;;;;;0.65;0.47;;;22.70;56.10;;;;;;5043319;28;20377;-72
2021/08/23 11:18:12;;;;;;;0.82;0.50;;;22.70;56.10;;;;;;5043629;28;20094;-74
2021/08/23 11:20:46;;;;;;;0.52;0.50;;;22.80;56.20;;;;;;5052802;28;21791;-75
2021/08/23 11:23:17;;;;;;;0.60;0.60;;;22.80;56.10;;;;;;5050539;28;20062;-75
2021/08/23 11:25:49;;;;;;;0.77;0.68;;;22.80;56.10;;;;;;5057088;28;20051;-73
2021/08/23 11:28:19;;;;;;;0.70;0.47;;;22.80;56.30;;;;;;5057926;28;20076;-74
2021/08/23 11:30:58;;;;;;;1.55;0.60;;;22.90;56.40;;;;;;5053805;28;20061;-71
2021/08/23 11:33:36;;;;;;;2.10;0.70;;;22.90;56.20;;;;;;5055992;28;20131;-73
2021/08/23 11:36:07;;;;;;;0.45;0.45;;;22.90;56.10;;;;;;5055558;28;20486;-74
2021/08/23 11:38:37;;;;;;;0.85;0.50;;;22.90;56.20;;;;;;5058145;28;20047;-74
2021/08/23 11:41:06;;;;;;;0.63;0.63;;;22.90;56.70;;;;;;5055876;28;20127;-74
2021/08/23 11:43:34;;;;;;;0.73;0.50;;;22.90;56.10;;;;;;5060329;28;20561;-74
2021/08/23 11:46:03;;;;;;;0.50;0.50;;;22.80;56.20;;;;;;5055712;28;20099;-74
2021/08/23 11:48:31;;;;;;;1.52;0.60;;;22.80;56.30;;;;;;5055493;28;20136;-74
2021/08/23 11:50:58;;;;;;;4.03;0.52;;;22.80;56.30;;;;;;5054882;28;20132;-73
2021/08/23 11:53:30;;;;;;;2.70;0.70;;;22.70;56.40;;;;;;5052063;28;20136;-74
2021/08/23 11:56:05;;;;;;;1.05;0.95;;;22.70;56.70;;;;;;5053508;28;20047;-73
2021/08/23 11:58:38;;;;;;;0.52;0.50;;;22.60;56.60;;;;;;5052346;28;20864;-74
2021/08/23 12:01:08;;;;;;;0.98;0.95;;;22.60;56.80;;;;;;5057917;28;20075;-74
2021/08/23 12:03:37;;;;;;;0.43;0.40;;;22.60;56.90;;;;;;5059086;28;20403;-76
2021/08/23 12:06:07;;;;;;;0.63;0.45;;;22.60;57.00;;;;;;5054998;28;20137;-74
2021/08/23 12:08:37;;;;;;;2.25;0.68;;;22.50;57.00;;;;;;5053466;28;20485;-74
2021/08/23 12:11:13;;;;;;;0.52;0.50;;;22.50;57.10;;;;;;5056008;28;20072;-73
2021/08/23 12:13:43;;;;;;;1.05;0.73;;;22.50;57.30;;;;;;5055603;28;20055;-74
2021/08/23 12:16:13;;;;;;;2.45;0.65;;;22.40;57.30;;;;;;5056389;28;20136;-72
2021/08/23 12:18:47;;;;;;;1.30;0.88;;;22.40;57.40;;;;;;5057416;28;20505;-72
2021/08/23 12:21:19;;;;;;;0.40;0.40;;;22.40;57.50;;;;;;5053297;28;20765;-72
2021/08/23 12:24:01;;;;;;;0.88;0.68;;;22.40;58.10;;;;;;5050944;28;20123;-70
2021/08/23 12:26:37;;;;;;;1.25;0.60;;;22.40;57.80;;;;;;5057601;28;20048;-73
2021/08/23 12:29:20;;;;;;;0.70;0.70;;;22.50;57.80;;;;;;5055702;28;20737;-71
2021/08/23 12:31:52;;;;;;;1.83;0.50;;;22.50;58.10;;;;;;5045823;28;20128;-72
2021/08/23 12:34:23;;;;;;;0.68;0.68;;;22.50;57.50;;;;;;5051128;28;20051;-71
2021/08/23 12:36:51;;;;;;;0.68;0.52;;;22.50;57.40;;;;;;5056276;28;20072;-73
2021/08/23 12:39:19;;;;;;;0.68;0.68;;;22.60;57.20;;;;;;5051146;28;20408;-73
2021/08/23 12:41:49;;;;;;;0.70;0.70;;;22.60;57.00;;;;;;5053193;28;20072;-74
2021/08/23 12:44:16;;;;;;;1.08;0.63;;;22.60;57.20;;;;;;5056917;28;20044;-75
2021/08/23 12:46:48;;;;;;;1.70;0.60;;;22.60;57.10;;;;;;5057602;28;20052;-74
2021/08/23 12:49:15;;;;;;;0.50;0.50;;;22.60;57.10;;;;;;5056922;28;20052;-74
2021/08/23 12:51:44;;;;;;;1.25;0.43;;;22.60;57.20;;;;;;5056413;28;20171;-74
2021/08/23 12:54:12;;;;;;;2.00;0.70;;;22.60;57.00;;;;;;5059397;28;20504;-75
2021/08/23 12:56:39;;;;;;;0.85;0.50;;;22.60;57.00;;;;;;5055710;28;20049;-76